<?xml version="1.0" encoding="UTF-8" standalone="no" ?>
<gpx xmlns="http://www.topografix.com/GPX/1/1" xmlns:xsi="http://www.w3.org/2001/XMLSchema-instance" xsi:schemaLocation="http://www.topografix.com/GPX/1/1 http://www.topografix.com/GPX/1/1/gpx.xsd" version="1.1" creator="VisuGPX - https://www.visugpx.com">
  <metadata>
    <name>Mont Né à partir de Bourg d\\\'Oueil</name>
    <desc><![CDATA[Dénivelé : 850m]]></desc>
  </metadata>
  <wpt lat="42.85885" lon="0.49548">
    <ele>1330</ele>
    <name><![CDATA[Bourg d_Oueil]]></name>
  </wpt>
  <wpt lat="42.86821" lon="0.47194">
    <ele>1855</ele>
    <name><![CDATA[Port de Pierrefite]]></name>
  </wpt>
  <wpt lat="42.8771" lon="0.47677">
    <ele>2147</ele>
    <name><![CDATA[Mont-Ne]]></name>
  </wpt>
  <trk>
    <name><![CDATA[Mont-Ne]]></name>
    <trkseg>
      <trkpt lat="42.85885" lon="0.49548">
        <ele>1330.6</ele>
        <time>2013-03-22T08:16:05Z</time>
      </trkpt>
      <trkpt lat="42.8588" lon="0.49542">
        <ele>1330.6</ele>
        <time>2013-03-22T08:16:32Z</time>
      </trkpt>
      <trkpt lat="42.85876" lon="0.49539">
        <ele>1331.1</ele>
        <time>2013-03-22T08:16:45Z</time>
      </trkpt>
      <trkpt lat="42.85873" lon="0.49543">
        <ele>1332.5</ele>
        <time>2013-03-22T08:18:16Z</time>
      </trkpt>
      <trkpt lat="42.85871" lon="0.49529">
        <ele>1331.6</ele>
        <time>2013-03-22T08:19:31Z</time>
      </trkpt>
      <trkpt lat="42.85871" lon="0.49528">
        <ele>1332</ele>
        <time>2013-03-22T08:19:51Z</time>
      </trkpt>
      <trkpt lat="42.85869" lon="0.49522">
        <ele>1331.6</ele>
        <time>2013-03-22T08:21:14Z</time>
      </trkpt>
      <trkpt lat="42.85872" lon="0.4951">
        <ele>1331.6</ele>
        <time>2013-03-22T08:21:25Z</time>
      </trkpt>
      <trkpt lat="42.85875" lon="0.49497">
        <ele>1332</ele>
        <time>2013-03-22T08:21:36Z</time>
      </trkpt>
      <trkpt lat="42.85876" lon="0.49486">
        <ele>1332</ele>
        <time>2013-03-22T08:21:47Z</time>
      </trkpt>
      <trkpt lat="42.85876" lon="0.49472">
        <ele>1334</ele>
        <time>2013-03-22T08:22:00Z</time>
      </trkpt>
      <trkpt lat="42.85878" lon="0.49457">
        <ele>1335.9</ele>
        <time>2013-03-22T08:22:15Z</time>
      </trkpt>
      <trkpt lat="42.85877" lon="0.49444">
        <ele>1337.8</ele>
        <time>2013-03-22T08:22:29Z</time>
      </trkpt>
      <trkpt lat="42.85874" lon="0.49432">
        <ele>1340.2</ele>
        <time>2013-03-22T08:22:42Z</time>
      </trkpt>
      <trkpt lat="42.85871" lon="0.49422">
        <ele>1342.1</ele>
        <time>2013-03-22T08:22:55Z</time>
      </trkpt>
      <trkpt lat="42.85866" lon="0.49409">
        <ele>1344.1</ele>
        <time>2013-03-22T08:23:09Z</time>
      </trkpt>
      <trkpt lat="42.85862" lon="0.49395">
        <ele>1346</ele>
        <time>2013-03-22T08:23:22Z</time>
      </trkpt>
      <trkpt lat="42.85859" lon="0.49385">
        <ele>1348.4</ele>
        <time>2013-03-22T08:23:36Z</time>
      </trkpt>
      <trkpt lat="42.85855" lon="0.49374">
        <ele>1350.8</ele>
        <time>2013-03-22T08:23:48Z</time>
      </trkpt>
      <trkpt lat="42.85854" lon="0.4936">
        <ele>1351.3</ele>
        <time>2013-03-22T08:23:59Z</time>
      </trkpt>
      <trkpt lat="42.85854" lon="0.49345">
        <ele>1351.8</ele>
        <time>2013-03-22T08:24:12Z</time>
      </trkpt>
      <trkpt lat="42.85851" lon="0.49331">
        <ele>1353.2</ele>
        <time>2013-03-22T08:24:23Z</time>
      </trkpt>
      <trkpt lat="42.85851" lon="0.49315">
        <ele>1352.7</ele>
        <time>2013-03-22T08:24:34Z</time>
      </trkpt>
      <trkpt lat="42.85851" lon="0.49302">
        <ele>1354.2</ele>
        <time>2013-03-22T08:24:46Z</time>
      </trkpt>
      <trkpt lat="42.85852" lon="0.49289">
        <ele>1354.6</ele>
        <time>2013-03-22T08:24:58Z</time>
      </trkpt>
      <trkpt lat="42.85851" lon="0.49273">
        <ele>1355.6</ele>
        <time>2013-03-22T08:25:09Z</time>
      </trkpt>
      <trkpt lat="42.85853" lon="0.49259">
        <ele>1356.6</ele>
        <time>2013-03-22T08:25:24Z</time>
      </trkpt>
      <trkpt lat="42.85855" lon="0.49245">
        <ele>1356.6</ele>
        <time>2013-03-22T08:25:39Z</time>
      </trkpt>
      <trkpt lat="42.85865" lon="0.49238">
        <ele>1356.6</ele>
        <time>2013-03-22T08:25:51Z</time>
      </trkpt>
      <trkpt lat="42.85877" lon="0.4924">
        <ele>1355.6</ele>
        <time>2013-03-22T08:26:01Z</time>
      </trkpt>
      <trkpt lat="42.85888" lon="0.49234">
        <ele>1357</ele>
        <time>2013-03-22T08:26:13Z</time>
      </trkpt>
      <trkpt lat="42.85897" lon="0.49232">
        <ele>1359.9</ele>
        <time>2013-03-22T08:26:28Z</time>
      </trkpt>
      <trkpt lat="42.85906" lon="0.49228">
        <ele>1361.8</ele>
        <time>2013-03-22T08:26:42Z</time>
      </trkpt>
      <trkpt lat="42.85908" lon="0.49218">
        <ele>1364.7</ele>
        <time>2013-03-22T08:27:00Z</time>
      </trkpt>
      <trkpt lat="42.85917" lon="0.49215">
        <ele>1368.6</ele>
        <time>2013-03-22T08:27:29Z</time>
      </trkpt>
      <trkpt lat="42.85919" lon="0.49201">
        <ele>1370.5</ele>
        <time>2013-03-22T08:28:09Z</time>
      </trkpt>
      <trkpt lat="42.85923" lon="0.49188">
        <ele>1373.4</ele>
        <time>2013-03-22T08:28:25Z</time>
      </trkpt>
      <trkpt lat="42.85932" lon="0.49178">
        <ele>1375.8</ele>
        <time>2013-03-22T08:28:42Z</time>
      </trkpt>
      <trkpt lat="42.85941" lon="0.4917">
        <ele>1379.2</ele>
        <time>2013-03-22T08:29:00Z</time>
      </trkpt>
      <trkpt lat="42.8595" lon="0.49166">
        <ele>1380.1</ele>
        <time>2013-03-22T08:29:15Z</time>
      </trkpt>
      <trkpt lat="42.8596" lon="0.49163">
        <ele>1381.6</ele>
        <time>2013-03-22T08:29:30Z</time>
      </trkpt>
      <trkpt lat="42.85968" lon="0.49161">
        <ele>1382.5</ele>
        <time>2013-03-22T08:29:47Z</time>
      </trkpt>
      <trkpt lat="42.85976" lon="0.49156">
        <ele>1384.4</ele>
        <time>2013-03-22T08:30:07Z</time>
      </trkpt>
      <trkpt lat="42.8599" lon="0.4915">
        <ele>1387.8</ele>
        <time>2013-03-22T08:30:49Z</time>
      </trkpt>
      <trkpt lat="42.85993" lon="0.49141">
        <ele>1391.7</ele>
        <time>2013-03-22T08:31:09Z</time>
      </trkpt>
      <trkpt lat="42.85994" lon="0.49137">
        <ele>1396</ele>
        <time>2013-03-22T08:31:27Z</time>
      </trkpt>
      <trkpt lat="42.86002" lon="0.49127">
        <ele>1399.8</ele>
        <time>2013-03-22T08:32:01Z</time>
      </trkpt>
      <trkpt lat="42.86008" lon="0.4912">
        <ele>1404.1</ele>
        <time>2013-03-22T08:32:22Z</time>
      </trkpt>
      <trkpt lat="42.86013" lon="0.49113">
        <ele>1406.1</ele>
        <time>2013-03-22T08:33:15Z</time>
      </trkpt>
      <trkpt lat="42.86024" lon="0.49113">
        <ele>1408.9</ele>
        <time>2013-03-22T08:33:35Z</time>
      </trkpt>
      <trkpt lat="42.86039" lon="0.49106">
        <ele>1410.9</ele>
        <time>2013-03-22T08:34:05Z</time>
      </trkpt>
      <trkpt lat="42.86053" lon="0.49101">
        <ele>1413.3</ele>
        <time>2013-03-22T08:34:24Z</time>
      </trkpt>
      <trkpt lat="42.86065" lon="0.49092">
        <ele>1416.2</ele>
        <time>2013-03-22T08:34:41Z</time>
      </trkpt>
      <trkpt lat="42.86081" lon="0.49087">
        <ele>1416.6</ele>
        <time>2013-03-22T09:20:53Z</time>
      </trkpt>
      <trkpt lat="42.86088" lon="0.49078">
        <ele>1418.6</ele>
        <time>2013-03-22T09:21:02Z</time>
      </trkpt>
      <trkpt lat="42.86089" lon="0.49063">
        <ele>1423.4</ele>
        <time>2013-03-22T09:21:15Z</time>
      </trkpt>
      <trkpt lat="42.86086" lon="0.49047">
        <ele>1428.2</ele>
        <time>2013-03-22T09:21:31Z</time>
      </trkpt>
      <trkpt lat="42.86091" lon="0.49027">
        <ele>1431.1</ele>
        <time>2013-03-22T09:21:46Z</time>
      </trkpt>
      <trkpt lat="42.86098" lon="0.49012">
        <ele>1435.4</ele>
        <time>2013-03-22T09:22:02Z</time>
      </trkpt>
      <trkpt lat="42.86104" lon="0.48998">
        <ele>1437.8</ele>
        <time>2013-03-22T09:22:16Z</time>
      </trkpt>
      <trkpt lat="42.86111" lon="0.48986">
        <ele>1439.7</ele>
        <time>2013-03-22T09:22:30Z</time>
      </trkpt>
      <trkpt lat="42.86115" lon="0.48969">
        <ele>1443.6</ele>
        <time>2013-03-22T09:22:47Z</time>
      </trkpt>
      <trkpt lat="42.86118" lon="0.48954">
        <ele>1446</ele>
        <time>2013-03-22T09:23:02Z</time>
      </trkpt>
      <trkpt lat="42.86119" lon="0.48941">
        <ele>1449.8</ele>
        <time>2013-03-22T09:23:16Z</time>
      </trkpt>
      <trkpt lat="42.8612" lon="0.48927">
        <ele>1452.2</ele>
        <time>2013-03-22T09:23:29Z</time>
      </trkpt>
      <trkpt lat="42.86123" lon="0.48916">
        <ele>1454.1</ele>
        <time>2013-03-22T09:23:40Z</time>
      </trkpt>
      <trkpt lat="42.86118" lon="0.48905">
        <ele>1457</ele>
        <time>2013-03-22T09:23:52Z</time>
      </trkpt>
      <trkpt lat="42.86123" lon="0.48891">
        <ele>1460.9</ele>
        <time>2013-03-22T09:24:09Z</time>
      </trkpt>
      <trkpt lat="42.8612" lon="0.48882">
        <ele>1463.7</ele>
        <time>2013-03-22T09:24:22Z</time>
      </trkpt>
      <trkpt lat="42.86124" lon="0.48868">
        <ele>1466.6</ele>
        <time>2013-03-22T09:24:37Z</time>
      </trkpt>
      <trkpt lat="42.86122" lon="0.48854">
        <ele>1470.9</ele>
        <time>2013-03-22T09:24:55Z</time>
      </trkpt>
      <trkpt lat="42.86121" lon="0.48839">
        <ele>1474.3</ele>
        <time>2013-03-22T09:25:11Z</time>
      </trkpt>
      <trkpt lat="42.86125" lon="0.48828">
        <ele>1477.7</ele>
        <time>2013-03-22T09:25:25Z</time>
      </trkpt>
      <trkpt lat="42.86132" lon="0.48809">
        <ele>1483</ele>
        <time>2013-03-22T09:28:33Z</time>
      </trkpt>
      <trkpt lat="42.86136" lon="0.48795">
        <ele>1486.8</ele>
        <time>2013-03-22T09:28:49Z</time>
      </trkpt>
      <trkpt lat="42.86134" lon="0.48781">
        <ele>1489.2</ele>
        <time>2013-03-22T09:29:03Z</time>
      </trkpt>
      <trkpt lat="42.86134" lon="0.48766">
        <ele>1492.6</ele>
        <time>2013-03-22T09:29:19Z</time>
      </trkpt>
      <trkpt lat="42.86132" lon="0.48751">
        <ele>1495.5</ele>
        <time>2013-03-22T09:29:35Z</time>
      </trkpt>
      <trkpt lat="42.86134" lon="0.48733">
        <ele>1498.8</ele>
        <time>2013-03-22T09:29:52Z</time>
      </trkpt>
      <trkpt lat="42.86135" lon="0.48718">
        <ele>1501.7</ele>
        <time>2013-03-22T09:30:09Z</time>
      </trkpt>
      <trkpt lat="42.86139" lon="0.48703">
        <ele>1505.6</ele>
        <time>2013-03-22T09:30:25Z</time>
      </trkpt>
      <trkpt lat="42.86142" lon="0.4869">
        <ele>1508.9</ele>
        <time>2013-03-22T09:30:39Z</time>
      </trkpt>
      <trkpt lat="42.86158" lon="0.48674">
        <ele>1495.5</ele>
        <time>2013-03-22T09:30:54Z</time>
      </trkpt>
      <trkpt lat="42.8617" lon="0.48656">
        <ele>1499.5</ele>
        <time>2013-03-22T09:31:10Z</time>
      </trkpt>
      <trkpt lat="42.86181" lon="0.48642">
        <ele>1505</ele>
        <time>2013-03-22T09:31:26Z</time>
      </trkpt>
      <trkpt lat="42.86188" lon="0.48622">
        <ele>1527.7</ele>
        <time>2013-03-22T09:32:16Z</time>
      </trkpt>
      <trkpt lat="42.86198" lon="0.48609">
        <ele>1516.8</ele>
        <time>2013-03-22T09:32:46Z</time>
      </trkpt>
      <trkpt lat="42.86212" lon="0.48595">
        <ele>1536.8</ele>
        <time>2013-03-22T09:33:01Z</time>
      </trkpt>
      <trkpt lat="42.86211" lon="0.48584">
        <ele>1539.2</ele>
        <time>2013-03-22T09:33:15Z</time>
      </trkpt>
      <trkpt lat="42.86218" lon="0.48573">
        <ele>1542.6</ele>
        <time>2013-03-22T09:33:31Z</time>
      </trkpt>
      <trkpt lat="42.86225" lon="0.48563">
        <ele>1545</ele>
        <time>2013-03-22T09:33:47Z</time>
      </trkpt>
      <trkpt lat="42.86242" lon="0.48551">
        <ele>1547.4</ele>
        <time>2013-03-22T09:34:00Z</time>
      </trkpt>
      <trkpt lat="42.86245" lon="0.48537">
        <ele>1550.7</ele>
        <time>2013-03-22T09:34:14Z</time>
      </trkpt>
      <trkpt lat="42.86247" lon="0.48523">
        <ele>1552.7</ele>
        <time>2013-03-22T09:34:29Z</time>
      </trkpt>
      <trkpt lat="42.86251" lon="0.48514">
        <ele>1555.1</ele>
        <time>2013-03-22T09:34:41Z</time>
      </trkpt>
      <trkpt lat="42.86259" lon="0.48504">
        <ele>1557.9</ele>
        <time>2013-03-22T09:34:55Z</time>
      </trkpt>
      <trkpt lat="42.86264" lon="0.48493">
        <ele>1560.8</ele>
        <time>2013-03-22T09:35:14Z</time>
      </trkpt>
      <trkpt lat="42.86268" lon="0.4848">
        <ele>1564.2</ele>
        <time>2013-03-22T09:35:33Z</time>
      </trkpt>
      <trkpt lat="42.86278" lon="0.48474">
        <ele>1567.1</ele>
        <time>2013-03-22T09:36:13Z</time>
      </trkpt>
      <trkpt lat="42.86288" lon="0.48464">
        <ele>1570.4</ele>
        <time>2013-03-22T09:36:28Z</time>
      </trkpt>
      <trkpt lat="42.86295" lon="0.48453">
        <ele>1573.3</ele>
        <time>2013-03-22T09:36:41Z</time>
      </trkpt>
      <trkpt lat="42.86298" lon="0.4844">
        <ele>1576.7</ele>
        <time>2013-03-22T09:36:54Z</time>
      </trkpt>
      <trkpt lat="42.86301" lon="0.48428">
        <ele>1580.1</ele>
        <time>2013-03-22T09:37:09Z</time>
      </trkpt>
      <trkpt lat="42.86307" lon="0.48417">
        <ele>1582.9</ele>
        <time>2013-03-22T09:37:24Z</time>
      </trkpt>
      <trkpt lat="42.86309" lon="0.48405">
        <ele>1587.3</ele>
        <time>2013-03-22T09:37:43Z</time>
      </trkpt>
      <trkpt lat="42.86315" lon="0.48393">
        <ele>1590.6</ele>
        <time>2013-03-22T09:38:01Z</time>
      </trkpt>
      <trkpt lat="42.8632" lon="0.48382">
        <ele>1593.5</ele>
        <time>2013-03-22T09:38:16Z</time>
      </trkpt>
      <trkpt lat="42.86324" lon="0.48381">
        <ele>1595</ele>
        <time>2013-03-22T09:38:41Z</time>
      </trkpt>
      <trkpt lat="42.86329" lon="0.48379">
        <ele>1597.4</ele>
        <time>2013-03-22T09:41:05Z</time>
      </trkpt>
      <trkpt lat="42.86333" lon="0.48367">
        <ele>1601.7</ele>
        <time>2013-03-22T09:41:20Z</time>
      </trkpt>
      <trkpt lat="42.86339" lon="0.48357">
        <ele>1604.6</ele>
        <time>2013-03-22T09:41:33Z</time>
      </trkpt>
      <trkpt lat="42.86346" lon="0.48346">
        <ele>1607</ele>
        <time>2013-03-22T09:41:47Z</time>
      </trkpt>
      <trkpt lat="42.86352" lon="0.48337">
        <ele>1610.3</ele>
        <time>2013-03-22T09:42:01Z</time>
      </trkpt>
      <trkpt lat="42.86356" lon="0.48324">
        <ele>1614.2</ele>
        <time>2013-03-22T09:42:16Z</time>
      </trkpt>
      <trkpt lat="42.86359" lon="0.48312">
        <ele>1616.6</ele>
        <time>2013-03-22T09:42:33Z</time>
      </trkpt>
      <trkpt lat="42.86361" lon="0.48301">
        <ele>1620</ele>
        <time>2013-03-22T09:42:50Z</time>
      </trkpt>
      <trkpt lat="42.86364" lon="0.48287">
        <ele>1622.4</ele>
        <time>2013-03-22T09:43:05Z</time>
      </trkpt>
      <trkpt lat="42.86363" lon="0.48276">
        <ele>1624.3</ele>
        <time>2013-03-22T09:43:20Z</time>
      </trkpt>
      <trkpt lat="42.8636" lon="0.48265">
        <ele>1626.7</ele>
        <time>2013-03-22T09:43:33Z</time>
      </trkpt>
      <trkpt lat="42.86355" lon="0.48252">
        <ele>1629.6</ele>
        <time>2013-03-22T09:43:47Z</time>
      </trkpt>
      <trkpt lat="42.86352" lon="0.48241">
        <ele>1632</ele>
        <time>2013-03-22T09:43:57Z</time>
      </trkpt>
      <trkpt lat="42.86351" lon="0.48228">
        <ele>1632.5</ele>
        <time>2013-03-22T09:44:09Z</time>
      </trkpt>
      <trkpt lat="42.86353" lon="0.48213">
        <ele>1631.5</ele>
        <time>2013-03-22T09:44:18Z</time>
      </trkpt>
      <trkpt lat="42.86353" lon="0.48199">
        <ele>1630.5</ele>
        <time>2013-03-22T09:44:26Z</time>
      </trkpt>
      <trkpt lat="42.86354" lon="0.48182">
        <ele>1630.5</ele>
        <time>2013-03-22T09:44:38Z</time>
      </trkpt>
      <trkpt lat="42.86354" lon="0.48167">
        <ele>1632.9</ele>
        <time>2013-03-22T09:44:50Z</time>
      </trkpt>
      <trkpt lat="42.86352" lon="0.48153">
        <ele>1634.4</ele>
        <time>2013-03-22T09:45:02Z</time>
      </trkpt>
      <trkpt lat="42.86349" lon="0.48142">
        <ele>1636.3</ele>
        <time>2013-03-22T09:45:18Z</time>
      </trkpt>
      <trkpt lat="42.86348" lon="0.48127">
        <ele>1637.7</ele>
        <time>2013-03-22T09:45:29Z</time>
      </trkpt>
      <trkpt lat="42.86346" lon="0.48116">
        <ele>1639.2</ele>
        <time>2013-03-22T09:45:42Z</time>
      </trkpt>
      <trkpt lat="42.86347" lon="0.48104">
        <ele>1642.1</ele>
        <time>2013-03-22T09:45:57Z</time>
      </trkpt>
      <trkpt lat="42.86353" lon="0.48087">
        <ele>1644</ele>
        <time>2013-03-22T09:46:18Z</time>
      </trkpt>
      <trkpt lat="42.86346" lon="0.48076">
        <ele>1647.8</ele>
        <time>2013-03-22T09:46:39Z</time>
      </trkpt>
      <trkpt lat="42.86346" lon="0.48061">
        <ele>1651.7</ele>
        <time>2013-03-22T09:46:58Z</time>
      </trkpt>
      <trkpt lat="42.86347" lon="0.48048">
        <ele>1655.5</ele>
        <time>2013-03-22T09:47:15Z</time>
      </trkpt>
      <trkpt lat="42.86357" lon="0.48038">
        <ele>1657.9</ele>
        <time>2013-03-22T09:47:36Z</time>
      </trkpt>
      <trkpt lat="42.86375" lon="0.48032">
        <ele>1657</ele>
        <time>2013-03-22T09:47:49Z</time>
      </trkpt>
      <trkpt lat="42.86382" lon="0.48023">
        <ele>1659.4</ele>
        <time>2013-03-22T09:48:07Z</time>
      </trkpt>
      <trkpt lat="42.86388" lon="0.48013">
        <ele>1662.3</ele>
        <time>2013-03-22T09:48:26Z</time>
      </trkpt>
      <trkpt lat="42.86389" lon="0.48001">
        <ele>1664.7</ele>
        <time>2013-03-22T09:48:42Z</time>
      </trkpt>
      <trkpt lat="42.86391" lon="0.47986">
        <ele>1669.5</ele>
        <time>2013-03-22T09:49:00Z</time>
      </trkpt>
      <trkpt lat="42.86394" lon="0.47971">
        <ele>1671.4</ele>
        <time>2013-03-22T09:49:13Z</time>
      </trkpt>
      <trkpt lat="42.86401" lon="0.47958">
        <ele>1673.8</ele>
        <time>2013-03-22T09:49:27Z</time>
      </trkpt>
      <trkpt lat="42.86408" lon="0.47949">
        <ele>1677.2</ele>
        <time>2013-03-22T09:49:43Z</time>
      </trkpt>
      <trkpt lat="42.86412" lon="0.47932">
        <ele>1680</ele>
        <time>2013-03-22T09:49:58Z</time>
      </trkpt>
      <trkpt lat="42.86415" lon="0.47922">
        <ele>1683.4</ele>
        <time>2013-03-22T09:50:15Z</time>
      </trkpt>
      <trkpt lat="42.86419" lon="0.47911">
        <ele>1686.3</ele>
        <time>2013-03-22T09:50:30Z</time>
      </trkpt>
      <trkpt lat="42.86416" lon="0.47903">
        <ele>1688.2</ele>
        <time>2013-03-22T09:51:25Z</time>
      </trkpt>
      <trkpt lat="42.86416" lon="0.47886">
        <ele>1690.6</ele>
        <time>2013-03-22T09:51:37Z</time>
      </trkpt>
      <trkpt lat="42.86415" lon="0.4787">
        <ele>1691.1</ele>
        <time>2013-03-22T09:51:50Z</time>
      </trkpt>
      <trkpt lat="42.86413" lon="0.47858">
        <ele>1692.5</ele>
        <time>2013-03-22T09:52:04Z</time>
      </trkpt>
      <trkpt lat="42.86411" lon="0.47843">
        <ele>1693.5</ele>
        <time>2013-03-22T09:52:16Z</time>
      </trkpt>
      <trkpt lat="42.86414" lon="0.47828">
        <ele>1694.5</ele>
        <time>2013-03-22T09:52:28Z</time>
      </trkpt>
      <trkpt lat="42.86423" lon="0.47815">
        <ele>1695.9</ele>
        <time>2013-03-22T09:52:43Z</time>
      </trkpt>
      <trkpt lat="42.86423" lon="0.47796">
        <ele>1696.9</ele>
        <time>2013-03-22T09:52:55Z</time>
      </trkpt>
      <trkpt lat="42.86428" lon="0.47783">
        <ele>1698.3</ele>
        <time>2013-03-22T09:53:08Z</time>
      </trkpt>
      <trkpt lat="42.86435" lon="0.47777">
        <ele>1700.2</ele>
        <time>2013-03-22T09:53:20Z</time>
      </trkpt>
      <trkpt lat="42.86444" lon="0.47773">
        <ele>1701.7</ele>
        <time>2013-03-22T09:53:35Z</time>
      </trkpt>
      <trkpt lat="42.86453" lon="0.47768">
        <ele>1701.7</ele>
        <time>2013-03-22T09:53:47Z</time>
      </trkpt>
      <trkpt lat="42.86457" lon="0.47756">
        <ele>1705.5</ele>
        <time>2013-03-22T09:54:05Z</time>
      </trkpt>
      <trkpt lat="42.86467" lon="0.47749">
        <ele>1705.5</ele>
        <time>2013-03-22T09:54:21Z</time>
      </trkpt>
      <trkpt lat="42.86474" lon="0.4774">
        <ele>1707</ele>
        <time>2013-03-22T09:54:42Z</time>
      </trkpt>
      <trkpt lat="42.86481" lon="0.47729">
        <ele>1709.4</ele>
        <time>2013-03-22T09:54:59Z</time>
      </trkpt>
      <trkpt lat="42.86486" lon="0.47717">
        <ele>1711.8</ele>
        <time>2013-03-22T09:55:18Z</time>
      </trkpt>
      <trkpt lat="42.86493" lon="0.47709">
        <ele>1715.1</ele>
        <time>2013-03-22T09:55:37Z</time>
      </trkpt>
      <trkpt lat="42.865" lon="0.47699">
        <ele>1717.5</ele>
        <time>2013-03-22T09:55:54Z</time>
      </trkpt>
      <trkpt lat="42.86507" lon="0.47692">
        <ele>1719.9</ele>
        <time>2013-03-22T09:56:11Z</time>
      </trkpt>
      <trkpt lat="42.86513" lon="0.47682">
        <ele>1722.3</ele>
        <time>2013-03-22T09:56:28Z</time>
      </trkpt>
      <trkpt lat="42.86521" lon="0.47677">
        <ele>1724.3</ele>
        <time>2013-03-22T09:56:51Z</time>
      </trkpt>
      <trkpt lat="42.86529" lon="0.47671">
        <ele>1727.2</ele>
        <time>2013-03-22T09:57:25Z</time>
      </trkpt>
      <trkpt lat="42.86533" lon="0.47666">
        <ele>1730</ele>
        <time>2013-03-22T09:57:43Z</time>
      </trkpt>
      <trkpt lat="42.86538" lon="0.47658">
        <ele>1732.9</ele>
        <time>2013-03-22T09:57:58Z</time>
      </trkpt>
      <trkpt lat="42.86545" lon="0.47649">
        <ele>1735.3</ele>
        <time>2013-03-22T09:58:13Z</time>
      </trkpt>
      <trkpt lat="42.86555" lon="0.47646">
        <ele>1737.2</ele>
        <time>2013-03-22T09:58:30Z</time>
      </trkpt>
      <trkpt lat="42.86564" lon="0.47642">
        <ele>1739.2</ele>
        <time>2013-03-22T09:58:45Z</time>
      </trkpt>
      <trkpt lat="42.86565" lon="0.47632">
        <ele>1744</ele>
        <time>2013-03-22T09:59:08Z</time>
      </trkpt>
      <trkpt lat="42.8657" lon="0.47622">
        <ele>1748.8</ele>
        <time>2013-03-22T09:59:24Z</time>
      </trkpt>
      <trkpt lat="42.86576" lon="0.47615">
        <ele>1751.7</ele>
        <time>2013-03-22T09:59:39Z</time>
      </trkpt>
      <trkpt lat="42.86581" lon="0.47606">
        <ele>1753.6</ele>
        <time>2013-03-22T09:59:53Z</time>
      </trkpt>
      <trkpt lat="42.86586" lon="0.47599">
        <ele>1756.9</ele>
        <time>2013-03-22T10:00:08Z</time>
      </trkpt>
      <trkpt lat="42.86592" lon="0.47595">
        <ele>1761.3</ele>
        <time>2013-03-22T10:00:22Z</time>
      </trkpt>
      <trkpt lat="42.86593" lon="0.47574">
        <ele>1758.9</ele>
        <time>2013-03-22T10:00:52Z</time>
      </trkpt>
      <trkpt lat="42.86595" lon="0.47566">
        <ele>1760.8</ele>
        <time>2013-03-22T10:01:06Z</time>
      </trkpt>
      <trkpt lat="42.86601" lon="0.47557">
        <ele>1762.2</ele>
        <time>2013-03-22T10:01:19Z</time>
      </trkpt>
      <trkpt lat="42.86605" lon="0.47548">
        <ele>1765.1</ele>
        <time>2013-03-22T10:01:34Z</time>
      </trkpt>
      <trkpt lat="42.86605" lon="0.4754">
        <ele>1767</ele>
        <time>2013-03-22T10:02:59Z</time>
      </trkpt>
      <trkpt lat="42.8661" lon="0.47529">
        <ele>1769.4</ele>
        <time>2013-03-22T10:03:08Z</time>
      </trkpt>
      <trkpt lat="42.86614" lon="0.47518">
        <ele>1769.9</ele>
        <time>2013-03-22T10:03:17Z</time>
      </trkpt>
      <trkpt lat="42.86617" lon="0.47507">
        <ele>1771.8</ele>
        <time>2013-03-22T10:03:26Z</time>
      </trkpt>
      <trkpt lat="42.86619" lon="0.47493">
        <ele>1773.3</ele>
        <time>2013-03-22T10:03:36Z</time>
      </trkpt>
      <trkpt lat="42.86622" lon="0.4748">
        <ele>1775.2</ele>
        <time>2013-03-22T10:03:48Z</time>
      </trkpt>
      <trkpt lat="42.86628" lon="0.47471">
        <ele>1776.7</ele>
        <time>2013-03-22T10:03:59Z</time>
      </trkpt>
      <trkpt lat="42.86633" lon="0.47459">
        <ele>1778.6</ele>
        <time>2013-03-22T10:04:12Z</time>
      </trkpt>
      <trkpt lat="42.86638" lon="0.47449">
        <ele>1780.5</ele>
        <time>2013-03-22T10:04:24Z</time>
      </trkpt>
      <trkpt lat="42.86646" lon="0.47439">
        <ele>1781.5</ele>
        <time>2013-03-22T10:04:37Z</time>
      </trkpt>
      <trkpt lat="42.86655" lon="0.47433">
        <ele>1782.4</ele>
        <time>2013-03-22T10:04:48Z</time>
      </trkpt>
      <trkpt lat="42.8666" lon="0.47425">
        <ele>1783.4</ele>
        <time>2013-03-22T10:05:04Z</time>
      </trkpt>
      <trkpt lat="42.8667" lon="0.47423">
        <ele>1786.8</ele>
        <time>2013-03-22T10:05:21Z</time>
      </trkpt>
      <trkpt lat="42.86677" lon="0.47417">
        <ele>1788.7</ele>
        <time>2013-03-22T10:05:35Z</time>
      </trkpt>
      <trkpt lat="42.86683" lon="0.47405">
        <ele>1789.6</ele>
        <time>2013-03-22T10:05:49Z</time>
      </trkpt>
      <trkpt lat="42.86691" lon="0.47397">
        <ele>1791.6</ele>
        <time>2013-03-22T10:06:02Z</time>
      </trkpt>
      <trkpt lat="42.86699" lon="0.4739">
        <ele>1793</ele>
        <time>2013-03-22T10:06:15Z</time>
      </trkpt>
      <trkpt lat="42.86706" lon="0.47382">
        <ele>1794.4</ele>
        <time>2013-03-22T10:06:26Z</time>
      </trkpt>
      <trkpt lat="42.86714" lon="0.47374">
        <ele>1795.4</ele>
        <time>2013-03-22T10:06:37Z</time>
      </trkpt>
      <trkpt lat="42.86719" lon="0.47361">
        <ele>1797.3</ele>
        <time>2013-03-22T10:06:50Z</time>
      </trkpt>
      <trkpt lat="42.86726" lon="0.47351">
        <ele>1799.2</ele>
        <time>2013-03-22T10:07:05Z</time>
      </trkpt>
      <trkpt lat="42.86734" lon="0.47345">
        <ele>1800.7</ele>
        <time>2013-03-22T10:07:19Z</time>
      </trkpt>
      <trkpt lat="42.86744" lon="0.47345">
        <ele>1803.1</ele>
        <time>2013-03-22T10:07:33Z</time>
      </trkpt>
      <trkpt lat="42.86754" lon="0.47346">
        <ele>1805</ele>
        <time>2013-03-22T10:07:56Z</time>
      </trkpt>
      <trkpt lat="42.86763" lon="0.47339">
        <ele>1806</ele>
        <time>2013-03-22T10:08:15Z</time>
      </trkpt>
      <trkpt lat="42.86775" lon="0.47332">
        <ele>1807.9</ele>
        <time>2013-03-22T10:08:31Z</time>
      </trkpt>
      <trkpt lat="42.86778" lon="0.47325">
        <ele>1809.3</ele>
        <time>2013-03-22T10:08:46Z</time>
      </trkpt>
      <trkpt lat="42.86781" lon="0.47316">
        <ele>1813.7</ele>
        <time>2013-03-22T10:09:03Z</time>
      </trkpt>
      <trkpt lat="42.8679" lon="0.47309">
        <ele>1817.5</ele>
        <time>2013-03-22T10:09:19Z</time>
      </trkpt>
      <trkpt lat="42.86798" lon="0.47302">
        <ele>1820.9</ele>
        <time>2013-03-22T10:09:35Z</time>
      </trkpt>
      <trkpt lat="42.86803" lon="0.47294">
        <ele>1822.3</ele>
        <time>2013-03-22T10:09:51Z</time>
      </trkpt>
      <trkpt lat="42.86811" lon="0.47287">
        <ele>1825.7</ele>
        <time>2013-03-22T10:10:08Z</time>
      </trkpt>
      <trkpt lat="42.86811" lon="0.47278">
        <ele>1829.1</ele>
        <time>2013-03-22T10:10:27Z</time>
      </trkpt>
      <trkpt lat="42.86815" lon="0.47268">
        <ele>1832.4</ele>
        <time>2013-03-22T10:10:49Z</time>
      </trkpt>
      <trkpt lat="42.86817" lon="0.47259">
        <ele>1835.3</ele>
        <time>2013-03-22T10:11:06Z</time>
      </trkpt>
      <trkpt lat="42.86822" lon="0.47248">
        <ele>1839.1</ele>
        <time>2013-03-22T10:11:27Z</time>
      </trkpt>
      <trkpt lat="42.86823" lon="0.4724">
        <ele>1843.5</ele>
        <time>2013-03-22T10:11:51Z</time>
      </trkpt>
      <trkpt lat="42.86819" lon="0.47231">
        <ele>1849.2</ele>
        <time>2013-03-22T10:12:26Z</time>
      </trkpt>
      <trkpt lat="42.86817" lon="0.47219">
        <ele>1853.6</ele>
        <time>2013-03-22T10:12:46Z</time>
      </trkpt>
      <trkpt lat="42.8682" lon="0.47207">
        <ele>1855.5</ele>
        <time>2013-03-22T10:13:10Z</time>
      </trkpt>
      <trkpt lat="42.86821" lon="0.47194">
        <ele>1857.4</ele>
        <time>2013-03-22T10:13:25Z</time>
      </trkpt>
      <trkpt lat="42.86825" lon="0.47199">
        <ele>1857.4</ele>
        <time>2013-03-22T10:16:54Z</time>
      </trkpt>
      <trkpt lat="42.86835" lon="0.47197">
        <ele>1857.4</ele>
        <time>2013-03-22T10:17:11Z</time>
      </trkpt>
      <trkpt lat="42.86844" lon="0.47194">
        <ele>1862.2</ele>
        <time>2013-03-22T10:17:39Z</time>
      </trkpt>
      <trkpt lat="42.86846" lon="0.47195">
        <ele>1861.2</ele>
        <time>2013-03-22T10:18:19Z</time>
      </trkpt>
      <trkpt lat="42.86846" lon="0.47199">
        <ele>1861.7</ele>
        <time>2013-03-22T10:19:42Z</time>
      </trkpt>
      <trkpt lat="42.86855" lon="0.47196">
        <ele>1862.7</ele>
        <time>2013-03-22T10:19:53Z</time>
      </trkpt>
      <trkpt lat="42.86866" lon="0.47195">
        <ele>1864.6</ele>
        <time>2013-03-22T10:20:05Z</time>
      </trkpt>
      <trkpt lat="42.86875" lon="0.47195">
        <ele>1866.1</ele>
        <time>2013-03-22T10:20:20Z</time>
      </trkpt>
      <trkpt lat="42.86886" lon="0.47195">
        <ele>1868.5</ele>
        <time>2013-03-22T10:20:43Z</time>
      </trkpt>
      <trkpt lat="42.86894" lon="0.47196">
        <ele>1870.4</ele>
        <time>2013-03-22T10:21:07Z</time>
      </trkpt>
      <trkpt lat="42.86904" lon="0.47197">
        <ele>1872.3</ele>
        <time>2013-03-22T10:21:22Z</time>
      </trkpt>
      <trkpt lat="42.86913" lon="0.47195">
        <ele>1874.2</ele>
        <time>2013-03-22T10:21:37Z</time>
      </trkpt>
      <trkpt lat="42.86921" lon="0.47194">
        <ele>1876.2</ele>
        <time>2013-03-22T10:21:51Z</time>
      </trkpt>
      <trkpt lat="42.86931" lon="0.47193">
        <ele>1878.6</ele>
        <time>2013-03-22T10:22:08Z</time>
      </trkpt>
      <trkpt lat="42.86939" lon="0.47194">
        <ele>1881</ele>
        <time>2013-03-22T10:22:35Z</time>
      </trkpt>
      <trkpt lat="42.86953" lon="0.47191">
        <ele>1883.8</ele>
        <time>2013-03-22T10:23:13Z</time>
      </trkpt>
      <trkpt lat="42.86961" lon="0.47193">
        <ele>1886.7</ele>
        <time>2013-03-22T10:23:28Z</time>
      </trkpt>
      <trkpt lat="42.86969" lon="0.47193">
        <ele>1888.7</ele>
        <time>2013-03-22T10:23:44Z</time>
      </trkpt>
      <trkpt lat="42.86977" lon="0.47194">
        <ele>1893.4</ele>
        <time>2013-03-22T10:24:04Z</time>
      </trkpt>
      <trkpt lat="42.86987" lon="0.47196">
        <ele>1896.3</ele>
        <time>2013-03-22T10:24:25Z</time>
      </trkpt>
      <trkpt lat="42.86995" lon="0.47197">
        <ele>1900.7</ele>
        <time>2013-03-22T10:24:48Z</time>
      </trkpt>
      <trkpt lat="42.87003" lon="0.47197">
        <ele>1903.1</ele>
        <time>2013-03-22T10:25:07Z</time>
      </trkpt>
      <trkpt lat="42.87012" lon="0.47196">
        <ele>1905.9</ele>
        <time>2013-03-22T10:25:25Z</time>
      </trkpt>
      <trkpt lat="42.87019" lon="0.47195">
        <ele>1908.3</ele>
        <time>2013-03-22T10:25:44Z</time>
      </trkpt>
      <trkpt lat="42.87028" lon="0.47197">
        <ele>1911.7</ele>
        <time>2013-03-22T10:26:15Z</time>
      </trkpt>
      <trkpt lat="42.87037" lon="0.47199">
        <ele>1915.1</ele>
        <time>2013-03-22T10:26:36Z</time>
      </trkpt>
      <trkpt lat="42.87046" lon="0.47203">
        <ele>1918.4</ele>
        <time>2013-03-22T10:27:01Z</time>
      </trkpt>
      <trkpt lat="42.87057" lon="0.47208">
        <ele>1922.8</ele>
        <time>2013-03-22T10:27:28Z</time>
      </trkpt>
      <trkpt lat="42.87064" lon="0.47214">
        <ele>1925.7</ele>
        <time>2013-03-22T10:28:38Z</time>
      </trkpt>
      <trkpt lat="42.8707" lon="0.47221">
        <ele>1928.5</ele>
        <time>2013-03-22T10:29:24Z</time>
      </trkpt>
      <trkpt lat="42.8708" lon="0.47229">
        <ele>1932.9</ele>
        <time>2013-03-22T10:29:48Z</time>
      </trkpt>
      <trkpt lat="42.87086" lon="0.47238">
        <ele>1937.2</ele>
        <time>2013-03-22T10:30:10Z</time>
      </trkpt>
      <trkpt lat="42.87093" lon="0.47245">
        <ele>1940.1</ele>
        <time>2013-03-22T10:30:47Z</time>
      </trkpt>
      <trkpt lat="42.87099" lon="0.47254">
        <ele>1943.9</ele>
        <time>2013-03-22T10:31:20Z</time>
      </trkpt>
      <trkpt lat="42.87105" lon="0.47261">
        <ele>1948.2</ele>
        <time>2013-03-22T10:31:45Z</time>
      </trkpt>
      <trkpt lat="42.87113" lon="0.47269">
        <ele>1952.1</ele>
        <time>2013-03-22T10:32:11Z</time>
      </trkpt>
      <trkpt lat="42.8712" lon="0.47278">
        <ele>1956.4</ele>
        <time>2013-03-22T10:32:40Z</time>
      </trkpt>
      <trkpt lat="42.87128" lon="0.47285">
        <ele>1959.8</ele>
        <time>2013-03-22T10:33:06Z</time>
      </trkpt>
      <trkpt lat="42.87135" lon="0.47293">
        <ele>1963.6</ele>
        <time>2013-03-22T10:33:32Z</time>
      </trkpt>
      <trkpt lat="42.87137" lon="0.47295">
        <ele>1964.6</ele>
        <time>2013-03-22T10:34:27Z</time>
      </trkpt>
      <trkpt lat="42.87145" lon="0.47303">
        <ele>1967.5</ele>
        <time>2013-03-22T10:36:04Z</time>
      </trkpt>
      <trkpt lat="42.87153" lon="0.4731">
        <ele>1969.4</ele>
        <time>2013-03-22T10:36:18Z</time>
      </trkpt>
      <trkpt lat="42.87161" lon="0.47316">
        <ele>1971.8</ele>
        <time>2013-03-22T10:36:34Z</time>
      </trkpt>
      <trkpt lat="42.87169" lon="0.47323">
        <ele>1974.2</ele>
        <time>2013-03-22T10:36:51Z</time>
      </trkpt>
      <trkpt lat="42.87176" lon="0.47329">
        <ele>1976.6</ele>
        <time>2013-03-22T10:37:08Z</time>
      </trkpt>
      <trkpt lat="42.87185" lon="0.47335">
        <ele>1980</ele>
        <time>2013-03-22T10:37:28Z</time>
      </trkpt>
      <trkpt lat="42.87193" lon="0.47342">
        <ele>1982.9</ele>
        <time>2013-03-22T10:37:46Z</time>
      </trkpt>
      <trkpt lat="42.87201" lon="0.47348">
        <ele>1987.2</ele>
        <time>2013-03-22T10:38:08Z</time>
      </trkpt>
      <trkpt lat="42.87209" lon="0.47355">
        <ele>1990.1</ele>
        <time>2013-03-22T10:38:31Z</time>
      </trkpt>
      <trkpt lat="42.87217" lon="0.47361">
        <ele>1993.9</ele>
        <time>2013-03-22T10:38:51Z</time>
      </trkpt>
      <trkpt lat="42.87226" lon="0.47369">
        <ele>1996.3</ele>
        <time>2013-03-22T10:39:13Z</time>
      </trkpt>
      <trkpt lat="42.87232" lon="0.47374">
        <ele>2000.2</ele>
        <time>2013-03-22T10:39:33Z</time>
      </trkpt>
      <trkpt lat="42.8724" lon="0.47381">
        <ele>2004</ele>
        <time>2013-03-22T10:39:55Z</time>
      </trkpt>
      <trkpt lat="42.87246" lon="0.47391">
        <ele>2008.8</ele>
        <time>2013-03-22T10:40:37Z</time>
      </trkpt>
      <trkpt lat="42.87252" lon="0.47397">
        <ele>2012.7</ele>
        <time>2013-03-22T10:41:03Z</time>
      </trkpt>
      <trkpt lat="42.87259" lon="0.47402">
        <ele>2015.1</ele>
        <time>2013-03-22T10:41:22Z</time>
      </trkpt>
      <trkpt lat="42.87266" lon="0.47408">
        <ele>2016.5</ele>
        <time>2013-03-22T10:43:14Z</time>
      </trkpt>
      <trkpt lat="42.87273" lon="0.47416">
        <ele>2018.4</ele>
        <time>2013-03-22T10:43:32Z</time>
      </trkpt>
      <trkpt lat="42.8728" lon="0.47425">
        <ele>2021.8</ele>
        <time>2013-03-22T10:43:54Z</time>
      </trkpt>
      <trkpt lat="42.87287" lon="0.47431">
        <ele>2023.7</ele>
        <time>2013-03-22T10:44:13Z</time>
      </trkpt>
      <trkpt lat="42.87295" lon="0.47438">
        <ele>2027.1</ele>
        <time>2013-03-22T10:44:33Z</time>
      </trkpt>
      <trkpt lat="42.87303" lon="0.47445">
        <ele>2030.9</ele>
        <time>2013-03-22T10:44:54Z</time>
      </trkpt>
      <trkpt lat="42.87311" lon="0.47455">
        <ele>2033.8</ele>
        <time>2013-03-22T10:45:21Z</time>
      </trkpt>
      <trkpt lat="42.87316" lon="0.47466">
        <ele>2037.7</ele>
        <time>2013-03-22T10:45:44Z</time>
      </trkpt>
      <trkpt lat="42.87321" lon="0.47476">
        <ele>2040.1</ele>
        <time>2013-03-22T10:46:06Z</time>
      </trkpt>
      <trkpt lat="42.87328" lon="0.4748">
        <ele>2043.4</ele>
        <time>2013-03-22T10:46:21Z</time>
      </trkpt>
      <trkpt lat="42.87334" lon="0.47482">
        <ele>2045.8</ele>
        <time>2013-03-22T10:46:51Z</time>
      </trkpt>
      <trkpt lat="42.87342" lon="0.47487">
        <ele>2049.7</ele>
        <time>2013-03-22T10:47:11Z</time>
      </trkpt>
      <trkpt lat="42.8735" lon="0.47492">
        <ele>2053</ele>
        <time>2013-03-22T10:47:34Z</time>
      </trkpt>
      <trkpt lat="42.87358" lon="0.47498">
        <ele>2057.4</ele>
        <time>2013-03-22T10:47:57Z</time>
      </trkpt>
      <trkpt lat="42.87368" lon="0.47498">
        <ele>2061.2</ele>
        <time>2013-03-22T10:48:19Z</time>
      </trkpt>
      <trkpt lat="42.87373" lon="0.47509">
        <ele>2064.6</ele>
        <time>2013-03-22T10:48:38Z</time>
      </trkpt>
      <trkpt lat="42.8738" lon="0.47512">
        <ele>2067.9</ele>
        <time>2013-03-22T10:48:55Z</time>
      </trkpt>
      <trkpt lat="42.87387" lon="0.47512">
        <ele>2071.3</ele>
        <time>2013-03-22T10:49:14Z</time>
      </trkpt>
      <trkpt lat="42.87393" lon="0.47519">
        <ele>2074.7</ele>
        <time>2013-03-22T10:49:43Z</time>
      </trkpt>
      <trkpt lat="42.87403" lon="0.4752">
        <ele>2078</ele>
        <time>2013-03-22T10:50:05Z</time>
      </trkpt>
      <trkpt lat="42.87411" lon="0.47522">
        <ele>2081.9</ele>
        <time>2013-03-22T10:50:28Z</time>
      </trkpt>
      <trkpt lat="42.87418" lon="0.47536">
        <ele>2087.2</ele>
        <time>2013-03-22T10:50:56Z</time>
      </trkpt>
      <trkpt lat="42.87426" lon="0.47537">
        <ele>2091.5</ele>
        <time>2013-03-22T10:51:32Z</time>
      </trkpt>
      <trkpt lat="42.87436" lon="0.47541">
        <ele>2095.3</ele>
        <time>2013-03-22T10:51:58Z</time>
      </trkpt>
      <trkpt lat="42.87447" lon="0.47544">
        <ele>2098.7</ele>
        <time>2013-03-22T10:52:21Z</time>
      </trkpt>
      <trkpt lat="42.87456" lon="0.47549">
        <ele>2101.6</ele>
        <time>2013-03-22T10:52:38Z</time>
      </trkpt>
      <trkpt lat="42.87463" lon="0.47558">
        <ele>2104.5</ele>
        <time>2013-03-22T10:52:56Z</time>
      </trkpt>
      <trkpt lat="42.8747" lon="0.47564">
        <ele>2107.4</ele>
        <time>2013-03-22T10:53:14Z</time>
      </trkpt>
      <trkpt lat="42.87478" lon="0.47569">
        <ele>2110.7</ele>
        <time>2013-03-22T10:53:30Z</time>
      </trkpt>
      <trkpt lat="42.87486" lon="0.47575">
        <ele>2112.6</ele>
        <time>2013-03-22T10:53:47Z</time>
      </trkpt>
      <trkpt lat="42.87494" lon="0.47584">
        <ele>2114.6</ele>
        <time>2013-03-22T10:54:04Z</time>
      </trkpt>
      <trkpt lat="42.87501" lon="0.47591">
        <ele>2117</ele>
        <time>2013-03-22T10:54:21Z</time>
      </trkpt>
      <trkpt lat="42.87511" lon="0.47597">
        <ele>2119.4</ele>
        <time>2013-03-22T10:54:41Z</time>
      </trkpt>
      <trkpt lat="42.8752" lon="0.47604">
        <ele>2122.2</ele>
        <time>2013-03-22T10:54:59Z</time>
      </trkpt>
      <trkpt lat="42.8753" lon="0.47608">
        <ele>2124.2</ele>
        <time>2013-03-22T10:55:17Z</time>
      </trkpt>
      <trkpt lat="42.87539" lon="0.47611">
        <ele>2127.1</ele>
        <time>2013-03-22T10:55:41Z</time>
      </trkpt>
      <trkpt lat="42.87549" lon="0.47617">
        <ele>2128</ele>
        <time>2013-03-22T10:55:58Z</time>
      </trkpt>
      <trkpt lat="42.87557" lon="0.47623">
        <ele>2130.4</ele>
        <time>2013-03-22T10:56:22Z</time>
      </trkpt>
      <trkpt lat="42.87566" lon="0.47628">
        <ele>2131.4</ele>
        <time>2013-03-22T10:56:37Z</time>
      </trkpt>
      <trkpt lat="42.87576" lon="0.47632">
        <ele>2132.3</ele>
        <time>2013-03-22T10:56:50Z</time>
      </trkpt>
      <trkpt lat="42.87586" lon="0.47637">
        <ele>2133.8</ele>
        <time>2013-03-22T10:57:05Z</time>
      </trkpt>
      <trkpt lat="42.87596" lon="0.47641">
        <ele>2134.7</ele>
        <time>2013-03-22T10:57:20Z</time>
      </trkpt>
      <trkpt lat="42.87605" lon="0.47645">
        <ele>2135.7</ele>
        <time>2013-03-22T10:57:33Z</time>
      </trkpt>
      <trkpt lat="42.87615" lon="0.47651">
        <ele>2136.2</ele>
        <time>2013-03-22T10:57:58Z</time>
      </trkpt>
      <trkpt lat="42.87625" lon="0.47655">
        <ele>2139.1</ele>
        <time>2013-03-22T10:58:08Z</time>
      </trkpt>
      <trkpt lat="42.87635" lon="0.47657">
        <ele>2139.6</ele>
        <time>2013-03-22T10:58:19Z</time>
      </trkpt>
      <trkpt lat="42.87645" lon="0.47659">
        <ele>2141</ele>
        <time>2013-03-22T10:58:31Z</time>
      </trkpt>
      <trkpt lat="42.87656" lon="0.4766">
        <ele>2142.4</ele>
        <time>2013-03-22T10:58:44Z</time>
      </trkpt>
      <trkpt lat="42.87668" lon="0.47661">
        <ele>2145.8</ele>
        <time>2013-03-22T10:59:00Z</time>
      </trkpt>
      <trkpt lat="42.87678" lon="0.47663">
        <ele>2148.7</ele>
        <time>2013-03-22T10:59:15Z</time>
      </trkpt>
      <trkpt lat="42.8769" lon="0.47666">
        <ele>2151.6</ele>
        <time>2013-03-22T10:59:31Z</time>
      </trkpt>
      <trkpt lat="42.877" lon="0.47669">
        <ele>2155.4</ele>
        <time>2013-03-22T10:59:47Z</time>
      </trkpt>
      <trkpt lat="42.87709" lon="0.47675">
        <ele>2159.3</ele>
        <time>2013-03-22T11:00:02Z</time>
      </trkpt>
      <trkpt lat="42.8771" lon="0.47677">
        <ele>2154</ele>
        <time>2013-03-22T11:01:14Z</time>
      </trkpt>
    </trkseg>
  </trk>
</gpx>